sensor_id;sensor_type;location;lat;lon;timestamp;temperature;humidity
5899;DHT22;2975;50.956;6.962;2023-05-07T00:01:14;14.90;99.90
5899;DHT22;2975;50.956;6.962;2023-05-07T00:03:40;14.90;99.90
5899;DHT22;2975;50.956;6.962;2023-05-07T00:06:05;14.90;99.90
5899;DHT22;2975;50.956;6.962;2023-05-07T00:08:31;15.00;99.90
5899;DHT22;2975;50.956;6.962;2023-05-07T00:10:57;15.00;99.90
5899;DHT22;2975;50.956;6.962;2023-05-07T00:13:22;15.00;99.90
5899;DHT22;2975;50.956;6.962;2023-05-07T00:15:48;15.00;99.90
5899;DHT22;2975;50.956;6.962;2023-05-07T00:18:13;15.00;99.90
5899;DHT22;2975;50.956;6.962;2023-05-07T00:20:39;15.10;99.90
5899;DHT22;2975;50.956;6.962;2023-05-07T00:23:04;15.10;99.90
5899;DHT22;2975;50.956;6.962;2023-05-07T00:25:30;15.10;99.90
5899;DHT22;2975;50.956;6.962;2023-05-07T00:27:56;15.10;99.90
5899;DHT22;2975;50.956;6.962;2023-05-07T00:30:23;15.10;99.90
5899;DHT22;2975;50.956;6.962;2023-05-07T00:32:48;15.20;99.90
5899;DHT22;2975;50.956;6.962;2023-05-07T00:35:14;15.10;99.90
5899;DHT22;2975;50.956;6.962;2023-05-07T00:37:40;15.20;99.90
5899;DHT22;2975;50.956;6.962;2023-05-07T00:40:06;15.20;99.90
5899;DHT22;2975;50.956;6.962;2023-05-07T00:42:33;15.20;99.90
5899;DHT22;2975;50.956;6.962;2023-05-07T00:44:58;15.20;99.90
5899;DHT22;2975;50.956;6.962;2023-05-07T00:47:25;15.10;99.90
5899;DHT22;2975;50.956;6.962;2023-05-07T00:49:51;15.10;99.90
5899;DHT22;2975;50.956;6.962;2023-05-07T00:52:17;15.10;99.90
5899;DHT22;2975;50.956;6.962;2023-05-07T00:54:45;15.10;99.90
5899;DHT22;2975;50.956;6.962;2023-05-07T00:57:11;15.10;99.90
5899;DHT22;2975;50.956;6.962;2023-05-07T00:59:37;15.00;99.90
5899;DHT22;2975;50.956;6.962;2023-05-07T01:02:03;15.00;99.90
5899;DHT22;2975;50.956;6.962;2023-05-07T01:04:29;15.10;99.90
5899;DHT22;2975;50.956;6.962;2023-05-07T01:06:55;15.10;99.90
5899;DHT22;2975;50.956;6.962;2023-05-07T01:09:25;15.20;99.90
5899;DHT22;2975;50.956;6.962;2023-05-07T01:11:52;15.20;99.90
5899;DHT22;2975;50.956;6.962;2023-05-07T01:14:19;15.10;99.90
5899;DHT22;2975;50.956;6.962;2023-05-07T01:16:46;15.10;99.90
5899;DHT22;2975;50.956;6.962;2023-05-07T01:19:12;15.00;99.90
5899;DHT22;2975;50.956;6.962;2023-05-07T01:21:46;15.00;99.90
5899;DHT22;2975;50.956;6.962;2023-05-07T01:24:12;14.90;99.90
5899;DHT22;2975;50.956;6.962;2023-05-07T01:26:38;14.90;99.90
5899;DHT22;2975;50.956;6.962;2023-05-07T01:29:04;14.90;99.90
5899;DHT22;2975;50.956;6.962;2023-05-07T01:31:30;14.80;99.90
5899;DHT22;2975;50.956;6.962;2023-05-07T01:33:57;14.80;99.90
5899;DHT22;2975;50.956;6.962;2023-05-07T01:36:25;14.80;99.90
5899;DHT22;2975;50.956;6.962;2023-05-07T01:38:52;14.80;99.90
5899;DHT22;2975;50.956;6.962;2023-05-07T01:41:19;14.70;99.90
5899;DHT22;2975;50.956;6.962;2023-05-07T01:43:46;14.70;99.90
5899;DHT22;2975;50.956;6.962;2023-05-07T01:46:12;14.70;99.90
5899;DHT22;2975;50.956;6.962;2023-05-07T01:48:38;14.70;99.90
5899;DHT22;2975;50.956;6.962;2023-05-07T01:51:04;14.70;99.90
5899;DHT22;2975;50.956;6.962;2023-05-07T01:53:36;14.70;99.90
5899;DHT22;2975;50.956;6.962;2023-05-07T01:56:02;14.60;99.90
5899;DHT22;2975;50.956;6.962;2023-05-07T01:58:27;14.70;99.90
5899;DHT22;2975;50.956;6.962;2023-05-07T02:00:53;14.60;99.90
5899;DHT22;2975;50.956;6.962;2023-05-07T02:03:18;14.60;99.90
5899;DHT22;2975;50.956;6.962;2023-05-07T02:05:44;14.60;99.90
5899;DHT22;2975;50.956;6.962;2023-05-07T02:08:10;14.50;99.90
5899;DHT22;2975;50.956;6.962;2023-05-07T02:10:35;14.50;99.90
5899;DHT22;2975;50.956;6.962;2023-05-07T02:13:01;14.40;99.90
5899;DHT22;2975;50.956;6.962;2023-05-07T02:15:27;14.40;99.90
5899;DHT22;2975;50.956;6.962;2023-05-07T02:18:07;14.30;99.90
5899;DHT22;2975;50.956;6.962;2023-05-07T02:20:33;14.30;99.90
5899;DHT22;2975;50.956;6.962;2023-05-07T02:22:58;14.30;99.90
5899;DHT22;2975;50.956;6.962;2023-05-07T02:25:24;14.30;99.90
5899;DHT22;2975;50.956;6.962;2023-05-07T02:27:50;14.20;99.90
5899;DHT22;2975;50.956;6.962;2023-05-07T02:30:15;14.10;99.90
5899;DHT22;2975;50.956;6.962;2023-05-07T02:32:41;14.10;99.90
5899;DHT22;2975;50.956;6.962;2023-05-07T02:35:07;14.00;99.90
5899;DHT22;2975;50.956;6.962;2023-05-07T02:37:32;14.00;99.90
5899;DHT22;2975;50.956;6.962;2023-05-07T02:39:58;14.00;99.90
5899;DHT22;2975;50.956;6.962;2023-05-07T02:42:24;14.10;99.90
5899;DHT22;2975;50.956;6.962;2023-05-07T02:44:49;14.10;99.90
5899;DHT22;2975;50.956;6.962;2023-05-07T02:47:15;14.10;99.90
5899;DHT22;2975;50.956;6.962;2023-05-07T02:49:41;14.20;99.90
5899;DHT22;2975;50.956;6.962;2023-05-07T02:52:07;14.30;99.90
5899;DHT22;2975;50.956;6.962;2023-05-07T02:54:32;14.30;99.90
5899;DHT22;2975;50.956;6.962;2023-05-07T02:56:58;14.40;99.90
5899;DHT22;2975;50.956;6.962;2023-05-07T02:59:24;14.40;99.90
5899;DHT22;2975;50.956;6.962;2023-05-07T03:01:51;14.40;99.90
5899;DHT22;2975;50.956;6.962;2023-05-07T03:04:17;14.40;99.90
5899;DHT22;2975;50.956;6.962;2023-05-07T03:06:43;14.30;99.90
5899;DHT22;2975;50.956;6.962;2023-05-07T03:09:09;14.30;99.90
5899;DHT22;2975;50.956;6.962;2023-05-07T03:11:34;14.30;99.90
5899;DHT22;2975;50.956;6.962;2023-05-07T03:14:01;14.30;99.90
5899;DHT22;2975;50.956;6.962;2023-05-07T03:16:27;14.20;99.90
5899;DHT22;2975;50.956;6.962;2023-05-07T03:18:52;14.20;99.90
5899;DHT22;2975;50.956;6.962;2023-05-07T03:21:18;14.20;99.90
5899;DHT22;2975;50.956;6.962;2023-05-07T03:23:44;14.20;99.90
5899;DHT22;2975;50.956;6.962;2023-05-07T03:26:10;14.20;99.90
5899;DHT22;2975;50.956;6.962;2023-05-07T03:28:36;14.20;99.90
5899;DHT22;2975;50.956;6.962;2023-05-07T03:31:02;14.20;99.90
5899;DHT22;2975;50.956;6.962;2023-05-07T03:33:28;14.10;99.90
5899;DHT22;2975;50.956;6.962;2023-05-07T03:35:53;14.00;99.90
5899;DHT22;2975;50.956;6.962;2023-05-07T03:38:19;14.00;99.90
5899;DHT22;2975;50.956;6.962;2023-05-07T03:40:44;13.90;99.90
5899;DHT22;2975;50.956;6.962;2023-05-07T03:43:10;13.80;99.90
5899;DHT22;2975;50.956;6.962;2023-05-07T03:45:36;13.80;99.90
5899;DHT22;2975;50.956;6.962;2023-05-07T03:48:01;13.70;99.90
5899;DHT22;2975;50.956;6.962;2023-05-07T03:50:27;13.70;99.90
5899;DHT22;2975;50.956;6.962;2023-05-07T03:52:52;13.70;99.90
5899;DHT22;2975;50.956;6.962;2023-05-07T03:55:18;13.60;99.90
5899;DHT22;2975;50.956;6.962;2023-05-07T03:57:44;13.70;99.90
5899;DHT22;2975;50.956;6.962;2023-05-07T04:00:10;13.70;99.90
5899;DHT22;2975;50.956;6.962;2023-05-07T04:02:35;13.70;99.90
5899;DHT22;2975;50.956;6.962;2023-05-07T04:05:01;13.70;99.90
5899;DHT22;2975;50.956;6.962;2023-05-07T04:07:26;13.80;99.90
5899;DHT22;2975;50.956;6.962;2023-05-07T04:09:52;13.80;99.90
5899;DHT22;2975;50.956;6.962;2023-05-07T04:12:18;13.90;99.90
5899;DHT22;2975;50.956;6.962;2023-05-07T04:14:43;13.90;99.90
5899;DHT22;2975;50.956;6.962;2023-05-07T04:17:10;14.00;99.90
5899;DHT22;2975;50.956;6.962;2023-05-07T04:19:36;14.10;99.90
5899;DHT22;2975;50.956;6.962;2023-05-07T04:22:02;14.10;99.90
5899;DHT22;2975;50.956;6.962;2023-05-07T04:24:30;14.30;99.90
5899;DHT22;2975;50.956;6.962;2023-05-07T04:26:56;14.40;99.90
5899;DHT22;2975;50.956;6.962;2023-05-07T04:29:21;14.50;99.90
5899;DHT22;2975;50.956;6.962;2023-05-07T04:31:47;14.60;99.90
5899;DHT22;2975;50.956;6.962;2023-05-07T04:34:12;14.60;99.90
5899;DHT22;2975;50.956;6.962;2023-05-07T04:36:39;14.70;99.90
5899;DHT22;2975;50.956;6.962;2023-05-07T04:39:05;14.70;99.90
5899;DHT22;2975;50.956;6.962;2023-05-07T04:41:30;14.80;99.90
5899;DHT22;2975;50.956;6.962;2023-05-07T04:43:56;14.80;99.90
5899;DHT22;2975;50.956;6.962;2023-05-07T04:46:24;14.90;99.90
5899;DHT22;2975;50.956;6.962;2023-05-07T04:48:50;15.00;99.90
5899;DHT22;2975;50.956;6.962;2023-05-07T04:51:15;15.10;99.90
5899;DHT22;2975;50.956;6.962;2023-05-07T04:53:41;15.10;99.90
5899;DHT22;2975;50.956;6.962;2023-05-07T04:56:08;15.20;99.90
5899;DHT22;2975;50.956;6.962;2023-05-07T04:58:34;15.30;99.90
5899;DHT22;2975;50.956;6.962;2023-05-07T05:00:59;15.40;99.90
5899;DHT22;2975;50.956;6.962;2023-05-07T05:03:25;15.60;99.90
5899;DHT22;2975;50.956;6.962;2023-05-07T05:05:51;15.80;99.90
5899;DHT22;2975;50.956;6.962;2023-05-07T05:08:18;16.20;99.90
5899;DHT22;2975;50.956;6.962;2023-05-07T05:10:43;16.50;99.90
5899;DHT22;2975;50.956;6.962;2023-05-07T05:13:09;16.60;99.90
5899;DHT22;2975;50.956;6.962;2023-05-07T05:15:38;16.50;99.90
5899;DHT22;2975;50.956;6.962;2023-05-07T05:18:03;16.40;99.90
5899;DHT22;2975;50.956;6.962;2023-05-07T05:20:29;16.40;99.90
5899;DHT22;2975;50.956;6.962;2023-05-07T05:22:55;16.20;99.90
5899;DHT22;2975;50.956;6.962;2023-05-07T05:25:20;16.20;99.90
5899;DHT22;2975;50.956;6.962;2023-05-07T05:27:46;16.20;99.90
5899;DHT22;2975;50.956;6.962;2023-05-07T05:30:12;16.20;99.90
5899;DHT22;2975;50.956;6.962;2023-05-07T05:32:38;16.30;99.90
5899;DHT22;2975;50.956;6.962;2023-05-07T05:35:04;16.20;99.90
5899;DHT22;2975;50.956;6.962;2023-05-07T05:37:29;16.30;99.90
5899;DHT22;2975;50.956;6.962;2023-05-07T05:39:56;16.30;99.90
5899;DHT22;2975;50.956;6.962;2023-05-07T05:42:23;16.40;99.90
5899;DHT22;2975;50.956;6.962;2023-05-07T05:44:49;16.40;99.90
5899;DHT22;2975;50.956;6.962;2023-05-07T05:47:14;16.50;99.90
5899;DHT22;2975;50.956;6.962;2023-05-07T05:49:40;16.50;99.90
5899;DHT22;2975;50.956;6.962;2023-05-07T05:52:06;16.60;99.90
5899;DHT22;2975;50.956;6.962;2023-05-07T05:54:31;16.60;99.90
5899;DHT22;2975;50.956;6.962;2023-05-07T05:56:57;16.60;99.90
5899;DHT22;2975;50.956;6.962;2023-05-07T05:59:23;16.50;99.90
5899;DHT22;2975;50.956;6.962;2023-05-07T06:01:48;16.60;99.90
5899;DHT22;2975;50.956;6.962;2023-05-07T06:04:14;16.50;99.90
5899;DHT22;2975;50.956;6.962;2023-05-07T06:06:40;16.50;99.90
5899;DHT22;2975;50.956;6.962;2023-05-07T06:09:05;16.60;99.90
5899;DHT22;2975;50.956;6.962;2023-05-07T06:11:31;16.80;99.90
5899;DHT22;2975;50.956;6.962;2023-05-07T06:13:57;16.80;99.90
5899;DHT22;2975;50.956;6.962;2023-05-07T06:16:24;16.90;99.90
5899;DHT22;2975;50.956;6.962;2023-05-07T06:18:50;17.10;99.90
5899;DHT22;2975;50.956;6.962;2023-05-07T06:21:15;17.30;99.90
5899;DHT22;2975;50.956;6.962;2023-05-07T06:23:41;17.20;99.90
5899;DHT22;2975;50.956;6.962;2023-05-07T06:26:07;17.20;99.90
5899;DHT22;2975;50.956;6.962;2023-05-07T06:28:33;17.40;99.90
5899;DHT22;2975;50.956;6.962;2023-05-07T06:31:14;17.60;99.90
5899;DHT22;2975;50.956;6.962;2023-05-07T06:33:41;17.80;99.90
5899;DHT22;2975;50.956;6.962;2023-05-07T06:36:07;17.90;99.90
5899;DHT22;2975;50.956;6.962;2023-05-07T06:38:32;18.10;99.90
5899;DHT22;2975;50.956;6.962;2023-05-07T06:40:58;18.10;99.90
5899;DHT22;2975;50.956;6.962;2023-05-07T06:43:23;18.20;99.90
5899;DHT22;2975;50.956;6.962;2023-05-07T06:45:49;18.30;99.90
5899;DHT22;2975;50.956;6.962;2023-05-07T06:48:14;18.50;99.90
5899;DHT22;2975;50.956;6.962;2023-05-07T06:50:41;18.60;99.90
5899;DHT22;2975;50.956;6.962;2023-05-07T06:53:07;18.80;99.90
5899;DHT22;2975;50.956;6.962;2023-05-07T06:55:32;19.10;99.90
5899;DHT22;2975;50.956;6.962;2023-05-07T06:57:58;19.50;99.90
5899;DHT22;2975;50.956;6.962;2023-05-07T07:00:26;20.00;99.90
5899;DHT22;2975;50.956;6.962;2023-05-07T07:02:53;20.00;99.90
5899;DHT22;2975;50.956;6.962;2023-05-07T07:05:18;19.90;99.90
5899;DHT22;2975;50.956;6.962;2023-05-07T07:07:44;20.00;99.90
5899;DHT22;2975;50.956;6.962;2023-05-07T07:10:10;20.20;99.90
5899;DHT22;2975;50.956;6.962;2023-05-07T07:12:35;20.20;99.90
5899;DHT22;2975;50.956;6.962;2023-05-07T07:15:01;20.50;99.90
5899;DHT22;2975;50.956;6.962;2023-05-07T07:17:27;20.90;99.40
5899;DHT22;2975;50.956;6.962;2023-05-07T07:19:53;21.20;99.00
5899;DHT22;2975;50.956;6.962;2023-05-07T07:22:19;21.40;97.00
5899;DHT22;2975;50.956;6.962;2023-05-07T07:24:45;21.40;96.60
5899;DHT22;2975;50.956;6.962;2023-05-07T07:27:10;21.50;96.90
5899;DHT22;2975;50.956;6.962;2023-05-07T07:29:36;21.80;96.60
5899;DHT22;2975;50.956;6.962;2023-05-07T07:32:01;22.10;95.70
5899;DHT22;2975;50.956;6.962;2023-05-07T07:34:27;22.10;95.40
5899;DHT22;2975;50.956;6.962;2023-05-07T07:36:53;22.20;95.90
5899;DHT22;2975;50.956;6.962;2023-05-07T07:39:18;22.10;94.70
5899;DHT22;2975;50.956;6.962;2023-05-07T07:41:44;21.80;95.40
5899;DHT22;2975;50.956;6.962;2023-05-07T07:44:09;21.80;96.00
5899;DHT22;2975;50.956;6.962;2023-05-07T07:46:38;21.90;95.60
5899;DHT22;2975;50.956;6.962;2023-05-07T07:49:03;22.10;94.70
5899;DHT22;2975;50.956;6.962;2023-05-07T07:51:29;22.00;95.00
5899;DHT22;2975;50.956;6.962;2023-05-07T07:53:55;22.00;94.80
5899;DHT22;2975;50.956;6.962;2023-05-07T07:56:23;22.10;95.50
5899;DHT22;2975;50.956;6.962;2023-05-07T07:58:48;22.30;95.20
5899;DHT22;2975;50.956;6.962;2023-05-07T08:01:14;22.50;94.80
5899;DHT22;2975;50.956;6.962;2023-05-07T08:03:40;22.70;94.30
5899;DHT22;2975;50.956;6.962;2023-05-07T08:06:06;22.70;94.50
5899;DHT22;2975;50.956;6.962;2023-05-07T08:08:31;22.80;93.90
5899;DHT22;2975;50.956;6.962;2023-05-07T08:10:57;23.00;93.60
5899;DHT22;2975;50.956;6.962;2023-05-07T08:13:22;23.10;93.50
5899;DHT22;2975;50.956;6.962;2023-05-07T08:15:48;23.00;93.80
5899;DHT22;2975;50.956;6.962;2023-05-07T08:18:14;23.00;93.80
5899;DHT22;2975;50.956;6.962;2023-05-07T08:20:40;23.10;93.70
5899;DHT22;2975;50.956;6.962;2023-05-07T08:23:06;23.30;92.90
5899;DHT22;2975;50.956;6.962;2023-05-07T08:25:35;23.30;92.30
5899;DHT22;2975;50.956;6.962;2023-05-07T08:28:01;23.30;92.60
5899;DHT22;2975;50.956;6.962;2023-05-07T08:30:28;23.40;92.70
5899;DHT22;2975;50.956;6.962;2023-05-07T08:32:54;23.60;92.40
5899;DHT22;2975;50.956;6.962;2023-05-07T08:35:20;23.70;92.40
5899;DHT22;2975;50.956;6.962;2023-05-07T08:37:45;23.80;91.80
5899;DHT22;2975;50.956;6.962;2023-05-07T08:40:11;23.60;92.00
5899;DHT22;2975;50.956;6.962;2023-05-07T08:42:37;23.60;91.90
5899;DHT22;2975;50.956;6.962;2023-05-07T08:45:04;23.80;92.00
5899;DHT22;2975;50.956;6.962;2023-05-07T08:47:39;23.80;92.00
5899;DHT22;2975;50.956;6.962;2023-05-07T08:50:06;23.90;91.90
5899;DHT22;2975;50.956;6.962;2023-05-07T08:52:32;24.00;91.20
5899;DHT22;2975;50.956;6.962;2023-05-07T08:54:58;24.00;91.70
5899;DHT22;2975;50.956;6.962;2023-05-07T08:57:24;24.00;91.30
5899;DHT22;2975;50.956;6.962;2023-05-07T08:59:50;24.10;91.00
5899;DHT22;2975;50.956;6.962;2023-05-07T09:02:15;24.20;91.40
5899;DHT22;2975;50.956;6.962;2023-05-07T09:04:42;24.30;90.80
5899;DHT22;2975;50.956;6.962;2023-05-07T09:07:07;24.30;90.60
5899;DHT22;2975;50.956;6.962;2023-05-07T09:09:33;24.10;90.80
5899;DHT22;2975;50.956;6.962;2023-05-07T09:11:59;24.10;90.10
5899;DHT22;2975;50.956;6.962;2023-05-07T09:14:25;23.90;90.80
5899;DHT22;2975;50.956;6.962;2023-05-07T09:16:52;23.70;91.10
5899;DHT22;2975;50.956;6.962;2023-05-07T09:19:23;23.70;90.80
5899;DHT22;2975;50.956;6.962;2023-05-07T09:21:49;23.50;90.90
5899;DHT22;2975;50.956;6.962;2023-05-07T09:24:15;23.50;91.20
5899;DHT22;2975;50.956;6.962;2023-05-07T09:26:41;23.60;90.80
5899;DHT22;2975;50.956;6.962;2023-05-07T09:29:10;23.70;91.30
5899;DHT22;2975;50.956;6.962;2023-05-07T09:31:38;23.80;91.20
5899;DHT22;2975;50.956;6.962;2023-05-07T09:34:05;24.10;91.00
5899;DHT22;2975;50.956;6.962;2023-05-07T09:36:31;24.60;90.50
5899;DHT22;2975;50.956;6.962;2023-05-07T09:38:59;24.90;90.60
5899;DHT22;2975;50.956;6.962;2023-05-07T09:41:26;25.30;88.60
5899;DHT22;2975;50.956;6.962;2023-05-07T09:43:55;24.80;87.70
5899;DHT22;2975;50.956;6.962;2023-05-07T09:46:25;24.30;88.60
5899;DHT22;2975;50.956;6.962;2023-05-07T09:48:53;23.80;90.10
5899;DHT22;2975;50.956;6.962;2023-05-07T09:51:38;23.60;90.70
5899;DHT22;2975;50.956;6.962;2023-05-07T09:54:05;23.90;90.90
5899;DHT22;2975;50.956;6.962;2023-05-07T09:56:32;23.70;90.00
5899;DHT22;2975;50.956;6.962;2023-05-07T09:59:00;23.50;90.70
5899;DHT22;2975;50.956;6.962;2023-05-07T10:01:26;23.30;90.90
5899;DHT22;2975;50.956;6.962;2023-05-07T10:03:52;23.40;90.40
5899;DHT22;2975;50.956;6.962;2023-05-07T10:06:20;23.10;91.10
5899;DHT22;2975;50.956;6.962;2023-05-07T10:08:46;22.90;91.00
5899;DHT22;2975;50.956;6.962;2023-05-07T10:11:13;22.80;91.30
5899;DHT22;2975;50.956;6.962;2023-05-07T10:13:41;22.80;91.60
5899;DHT22;2975;50.956;6.962;2023-05-07T10:16:08;22.70;91.50
5899;DHT22;2975;50.956;6.962;2023-05-07T10:18:33;22.90;91.70
5899;DHT22;2975;50.956;6.962;2023-05-07T10:23:33;22.90;91.40
5899;DHT22;2975;50.956;6.962;2023-05-07T10:26:02;22.80;91.60
5899;DHT22;2975;50.956;6.962;2023-05-07T10:28:29;23.00;91.80
5899;DHT22;2975;50.956;6.962;2023-05-07T10:33:48;22.70;91.50
5899;DHT22;2975;50.956;6.962;2023-05-07T10:36:17;22.90;91.50
5899;DHT22;2975;50.956;6.962;2023-05-07T10:38:43;23.20;90.70
5899;DHT22;2975;50.956;6.962;2023-05-07T10:41:09;23.50;90.90
5899;DHT22;2975;50.956;6.962;2023-05-07T10:43:42;23.90;90.20
5899;DHT22;2975;50.956;6.962;2023-05-07T10:46:19;24.10;90.20
5899;DHT22;2975;50.956;6.962;2023-05-07T10:51:26;24.30;87.70
5899;DHT22;2975;50.956;6.962;2023-05-07T10:56:37;24.30;87.70
5899;DHT22;2975;50.956;6.962;2023-05-07T11:02:02;24.60;85.50
5899;DHT22;2975;50.956;6.962;2023-05-07T11:04:29;24.60;85.50
5899;DHT22;2975;50.956;6.962;2023-05-07T11:17:32;25.90;79.40
5899;DHT22;2975;50.956;6.962;2023-05-07T11:20:01;26.10;79.50
5899;DHT22;2975;50.956;6.962;2023-05-07T11:24:58;26.60;74.20
5899;DHT22;2975;50.956;6.962;2023-05-07T11:27:25;26.70;72.60
5899;DHT22;2975;50.956;6.962;2023-05-07T11:29:51;26.60;70.70
5899;DHT22;2975;50.956;6.962;2023-05-07T11:32:22;26.30;69.80
5899;DHT22;2975;50.956;6.962;2023-05-07T11:34:52;26.00;69.00
5899;DHT22;2975;50.956;6.962;2023-05-07T11:37:19;25.50;70.10
5899;DHT22;2975;50.956;6.962;2023-05-07T11:39:44;25.30;70.50
5899;DHT22;2975;50.956;6.962;2023-05-07T11:42:30;25.30;71.20
5899;DHT22;2975;50.956;6.962;2023-05-07T11:44:56;25.50;71.70
5899;DHT22;2975;50.956;6.962;2023-05-07T11:47:22;25.70;70.60
5899;DHT22;2975;50.956;6.962;2023-05-07T11:49:49;25.90;71.20
5899;DHT22;2975;50.956;6.962;2023-05-07T11:52:16;25.90;70.20
5899;DHT22;2975;50.956;6.962;2023-05-07T11:54:51;25.90;70.90
5899;DHT22;2975;50.956;6.962;2023-05-07T11:57:18;25.80;70.70
5899;DHT22;2975;50.956;6.962;2023-05-07T11:59:43;25.60;69.80
5899;DHT22;2975;50.956;6.962;2023-05-07T12:02:17;25.30;70.80
5899;DHT22;2975;50.956;6.962;2023-05-07T12:04:43;25.20;73.80
5899;DHT22;2975;50.956;6.962;2023-05-07T12:07:15;25.20;72.30
5899;DHT22;2975;50.956;6.962;2023-05-07T12:09:41;25.10;73.80
5899;DHT22;2975;50.956;6.962;2023-05-07T12:12:07;25.10;73.70
5899;DHT22;2975;50.956;6.962;2023-05-07T12:14:37;25.00;71.50
5899;DHT22;2975;50.956;6.962;2023-05-07T12:17:03;24.80;72.90
5899;DHT22;2975;50.956;6.962;2023-05-07T12:19:30;24.80;73.30
5899;DHT22;2975;50.956;6.962;2023-05-07T12:21:56;24.90;72.80
5899;DHT22;2975;50.956;6.962;2023-05-07T12:24:22;25.00;75.20
5899;DHT22;2975;50.956;6.962;2023-05-07T12:26:48;24.90;76.60
5899;DHT22;2975;50.956;6.962;2023-05-07T12:29:14;25.00;75.50
5899;DHT22;2975;50.956;6.962;2023-05-07T12:31:43;25.10;79.80
5899;DHT22;2975;50.956;6.962;2023-05-07T12:34:11;25.30;79.70
5899;DHT22;2975;50.956;6.962;2023-05-07T12:36:40;25.50;79.60
5899;DHT22;2975;50.956;6.962;2023-05-07T12:39:08;25.80;76.10
5899;DHT22;2975;50.956;6.962;2023-05-07T12:41:54;25.80;76.70
5899;DHT22;2975;50.956;6.962;2023-05-07T12:44:24;25.80;77.40
5899;DHT22;2975;50.956;6.962;2023-05-07T12:46:51;25.80;75.10
5899;DHT22;2975;50.956;6.962;2023-05-07T12:49:17;25.70;74.90
5899;DHT22;2975;50.956;6.962;2023-05-07T12:51:48;25.70;74.40
5899;DHT22;2975;50.956;6.962;2023-05-07T12:54:28;25.60;74.10
5899;DHT22;2975;50.956;6.962;2023-05-07T12:57:21;25.50;76.60
5899;DHT22;2975;50.956;6.962;2023-05-07T12:59:46;25.20;80.90
5899;DHT22;2975;50.956;6.962;2023-05-07T13:02:12;24.90;81.40
5899;DHT22;2975;50.956;6.962;2023-05-07T13:04:37;24.70;78.20
5899;DHT22;2975;50.956;6.962;2023-05-07T13:07:03;24.40;78.40
5899;DHT22;2975;50.956;6.962;2023-05-07T13:09:29;24.20;78.80
5899;DHT22;2975;50.956;6.962;2023-05-07T13:11:56;23.90;84.80
5899;DHT22;2975;50.956;6.962;2023-05-07T13:14:21;23.70;86.40
5899;DHT22;2975;50.956;6.962;2023-05-07T13:16:47;23.60;90.70
5899;DHT22;2975;50.956;6.962;2023-05-07T13:19:13;23.50;90.00
5899;DHT22;2975;50.956;6.962;2023-05-07T13:21:39;23.50;90.40
5899;DHT22;2975;50.956;6.962;2023-05-07T13:24:05;23.60;91.90
5899;DHT22;2975;50.956;6.962;2023-05-07T13:26:31;23.70;92.10
5899;DHT22;2975;50.956;6.962;2023-05-07T13:28:57;23.70;90.60
5899;DHT22;2975;50.956;6.962;2023-05-07T13:31:24;23.60;87.10
5899;DHT22;2975;50.956;6.962;2023-05-07T13:33:50;23.50;87.60
5899;DHT22;2975;50.956;6.962;2023-05-07T13:36:15;23.60;88.80
5899;DHT22;2975;50.956;6.962;2023-05-07T13:38:41;23.60;89.70
5899;DHT22;2975;50.956;6.962;2023-05-07T13:41:07;23.50;88.10
5899;DHT22;2975;50.956;6.962;2023-05-07T13:43:32;23.70;88.50
5899;DHT22;2975;50.956;6.962;2023-05-07T13:45:59;23.50;86.70
5899;DHT22;2975;50.956;6.962;2023-05-07T13:48:25;23.20;87.20
5899;DHT22;2975;50.956;6.962;2023-05-07T13:50:51;23.10;87.50
5899;DHT22;2975;50.956;6.962;2023-05-07T13:53:17;23.10;87.90
5899;DHT22;2975;50.956;6.962;2023-05-07T13:55:44;23.30;90.00
5899;DHT22;2975;50.956;6.962;2023-05-07T13:58:10;23.40;86.50
5899;DHT22;2975;50.956;6.962;2023-05-07T14:00:35;23.50;87.70
5899;DHT22;2975;50.956;6.962;2023-05-07T14:03:01;23.70;87.30
5899;DHT22;2975;50.956;6.962;2023-05-07T14:05:27;23.80;87.00
5899;DHT22;2975;50.956;6.962;2023-05-07T14:07:57;23.80;85.50
5899;DHT22;2975;50.956;6.962;2023-05-07T14:10:22;23.70;84.50
5899;DHT22;2975;50.956;6.962;2023-05-07T14:12:48;23.50;85.20
5899;DHT22;2975;50.956;6.962;2023-05-07T14:15:14;23.40;86.30
5899;DHT22;2975;50.956;6.962;2023-05-07T14:17:39;23.10;87.20
5899;DHT22;2975;50.956;6.962;2023-05-07T14:20:05;23.20;88.50
5899;DHT22;2975;50.956;6.962;2023-05-07T14:22:32;23.30;88.10
5899;DHT22;2975;50.956;6.962;2023-05-07T14:24:57;23.50;87.90
5899;DHT22;2975;50.956;6.962;2023-05-07T14:27:23;23.40;87.90
5899;DHT22;2975;50.956;6.962;2023-05-07T14:29:49;23.40;87.40
5899;DHT22;2975;50.956;6.962;2023-05-07T14:32:17;23.50;87.60
5899;DHT22;2975;50.956;6.962;2023-05-07T14:34:44;23.70;88.50
5899;DHT22;2975;50.956;6.962;2023-05-07T14:37:09;23.70;88.80
5899;DHT22;2975;50.956;6.962;2023-05-07T14:39:35;23.70;90.00
5899;DHT22;2975;50.956;6.962;2023-05-07T14:42:01;23.80;90.80
5899;DHT22;2975;50.956;6.962;2023-05-07T14:44:26;23.80;90.60
5899;DHT22;2975;50.956;6.962;2023-05-07T14:46:52;23.90;90.90
5899;DHT22;2975;50.956;6.962;2023-05-07T14:49:18;24.00;90.80
5899;DHT22;2975;50.956;6.962;2023-05-07T14:51:47;23.50;91.10
5899;DHT22;2975;50.956;6.962;2023-05-07T14:54:13;23.20;91.10
5899;DHT22;2975;50.956;6.962;2023-05-07T14:56:40;23.00;91.10
5899;DHT22;2975;50.956;6.962;2023-05-07T14:59:06;22.60;92.30
5899;DHT22;2975;50.956;6.962;2023-05-07T15:01:32;22.60;92.90
5899;DHT22;2975;50.956;6.962;2023-05-07T15:03:59;22.60;93.60
5899;DHT22;2975;50.956;6.962;2023-05-07T15:06:25;22.40;93.40
5899;DHT22;2975;50.956;6.962;2023-05-07T15:08:52;22.10;93.70
5899;DHT22;2975;50.956;6.962;2023-05-07T15:11:17;22.00;94.10
5899;DHT22;2975;50.956;6.962;2023-05-07T15:13:43;22.00;93.30
5899;DHT22;2975;50.956;6.962;2023-05-07T15:16:09;21.80;93.70
5899;DHT22;2975;50.956;6.962;2023-05-07T15:18:34;21.80;94.00
5899;DHT22;2975;50.956;6.962;2023-05-07T15:21:00;21.80;93.70
5899;DHT22;2975;50.956;6.962;2023-05-07T15:23:25;21.80;94.20
5899;DHT22;2975;50.956;6.962;2023-05-07T15:25:52;21.90;93.60
5899;DHT22;2975;50.956;6.962;2023-05-07T15:28:17;22.10;92.90
5899;DHT22;2975;50.956;6.962;2023-05-07T15:30:43;22.30;93.00
5899;DHT22;2975;50.956;6.962;2023-05-07T15:33:09;22.30;93.40
5899;DHT22;2975;50.956;6.962;2023-05-07T15:35:35;22.20;94.20
5899;DHT22;2975;50.956;6.962;2023-05-07T15:38:00;22.50;94.50
5899;DHT22;2975;50.956;6.962;2023-05-07T15:40:29;22.40;94.90
5899;DHT22;2975;50.956;6.962;2023-05-07T15:42:55;22.50;95.60
5899;DHT22;2975;50.956;6.962;2023-05-07T15:45:22;22.20;96.10
5899;DHT22;2975;50.956;6.962;2023-05-07T15:47:48;21.80;97.40
5899;DHT22;2975;50.956;6.962;2023-05-07T15:50:14;21.60;98.60
5899;DHT22;2975;50.956;6.962;2023-05-07T15:52:39;21.30;99.30
5899;DHT22;2975;50.956;6.962;2023-05-07T15:55:06;21.30;98.90
5899;DHT22;2975;50.956;6.962;2023-05-07T15:57:32;21.50;98.60
5899;DHT22;2975;50.956;6.962;2023-05-07T15:59:57;21.60;99.00
5899;DHT22;2975;50.956;6.962;2023-05-07T16:02:23;21.80;98.50
5899;DHT22;2975;50.956;6.962;2023-05-07T16:04:49;22.10;97.80
5899;DHT22;2975;50.956;6.962;2023-05-07T16:07:14;22.20;97.00
5899;DHT22;2975;50.956;6.962;2023-05-07T16:09:40;22.20;96.80
5899;DHT22;2975;50.956;6.962;2023-05-07T16:12:06;22.10;97.30
5899;DHT22;2975;50.956;6.962;2023-05-07T16:14:32;22.20;97.20
5899;DHT22;2975;50.956;6.962;2023-05-07T16:16:57;22.30;96.60
5899;DHT22;2975;50.956;6.962;2023-05-07T16:19:23;22.20;97.00
5899;DHT22;2975;50.956;6.962;2023-05-07T16:21:49;22.20;97.50
5899;DHT22;2975;50.956;6.962;2023-05-07T16:24:14;22.10;97.40